createdAt,value
2022-08-28T00:01:36.843Z,17.49
2022-08-28T00:04:09.332Z,17.58
2022-08-28T00:06:41.716Z,17.58
2022-08-28T00:09:14.347Z,17.53
2022-08-28T00:11:47.677Z,17.51
2022-08-28T00:14:20.983Z,17.51
2022-08-28T00:16:53.882Z,17.45
2022-08-28T00:19:26.818Z,17.45
2022-08-28T00:21:59.207Z,17.44
2022-08-28T00:24:31.694Z,17.43
2022-08-28T00:27:31.092Z,17.41
2022-08-28T00:30:05.166Z,17.40
2022-08-28T00:32:37.917Z,17.40
2022-08-28T00:35:11.708Z,17.35
2022-08-28T00:37:44.355Z,17.34
2022-08-28T00:40:28.833Z,17.31
2022-08-28T00:43:06.142Z,17.32
2022-08-28T00:45:40.251Z,17.30
2022-08-28T00:48:12.970Z,17.34
2022-08-28T00:51:03.788Z,17.32
2022-08-28T00:53:36.378Z,17.27
2022-08-28T00:56:13.003Z,17.21
2022-08-28T00:58:49.627Z,17.20
2022-08-28T01:01:23.353Z,17.21
2022-08-28T01:03:55.748Z,17.11
2022-08-28T01:06:28.156Z,17.09
2022-08-28T01:09:00.619Z,17.10
2022-08-28T01:11:33.561Z,17.11
2022-08-28T01:14:07.886Z,17.06
2022-08-28T01:16:42.513Z,17.06
2022-08-28T01:19:21.619Z,17.00
2022-08-28T01:22:02.179Z,16.97
2022-08-28T01:24:37.814Z,16.95
2022-08-28T01:27:10.653Z,16.84
2022-08-28T01:29:44.774Z,16.90
2022-08-28T01:32:32.383Z,16.97
2022-08-28T01:35:10.162Z,16.92
2022-08-28T01:37:42.978Z,16.91
2022-08-28T01:40:22.238Z,16.85
2022-08-28T01:42:54.971Z,16.85
2022-08-28T01:45:27.348Z,16.76
2022-08-28T01:48:01.415Z,16.81
2022-08-28T01:50:34.992Z,16.80
2022-08-28T01:53:12.432Z,16.77
2022-08-28T01:55:45.752Z,16.72
2022-08-28T01:58:18.639Z,16.71
2022-08-28T02:00:52.414Z,16.67
2022-08-28T02:03:27.327Z,16.71
2022-08-28T02:05:59.738Z,16.71
2022-08-28T02:08:32.273Z,16.69
2022-08-28T02:11:07.488Z,16.72
2022-08-28T02:13:40.424Z,16.70
2022-08-28T02:16:12.809Z,16.50
2022-08-28T02:18:45.386Z,16.48
2022-08-28T02:21:17.964Z,16.52
2022-08-28T02:23:50.596Z,16.52
2022-08-28T02:26:23.665Z,16.49
2022-08-28T02:28:56.043Z,16.48
2022-08-28T02:31:28.579Z,16.50
2022-08-28T02:34:01.031Z,16.51
2022-08-28T02:36:33.622Z,16.38
2022-08-28T02:39:06.018Z,16.43
2022-08-28T02:41:39.516Z,16.42
2022-08-28T02:44:11.925Z,16.33
2022-08-28T02:46:44.294Z,16.41
2022-08-28T02:49:16.707Z,16.48
2022-08-28T02:51:49.107Z,16.39
2022-08-28T02:54:21.629Z,16.38
2022-08-28T02:56:54.723Z,16.35
2022-08-28T02:59:27.291Z,16.38
2022-08-28T03:02:00.475Z,16.34
2022-08-28T03:04:33.043Z,16.24
2022-08-28T03:07:08.551Z,16.22
2022-08-28T03:09:43.584Z,16.13
2022-08-28T03:12:16.716Z,16.13
2022-08-28T03:14:49.209Z,16.17
2022-08-28T03:17:21.747Z,16.18
2022-08-28T03:19:54.237Z,16.16
2022-08-28T03:22:41.222Z,16.14
2022-08-28T03:25:14.205Z,16.17
2022-08-28T03:27:47.291Z,16.15
2022-08-28T03:30:21.298Z,16.13
2022-08-28T03:32:53.855Z,16.14
2022-08-28T03:35:26.252Z,16.11
2022-08-28T03:37:58.870Z,16.08
2022-08-28T03:40:31.910Z,16.13
2022-08-28T03:43:05.167Z,16.13
2022-08-28T03:45:39.566Z,16.14
2022-08-28T03:48:12.107Z,16.15
2022-08-28T03:50:46.170Z,16.14
2022-08-28T03:53:20.871Z,16.05
2022-08-28T03:55:53.662Z,16.08
2022-08-28T03:58:27.998Z,16.06
2022-08-28T04:01:00.453Z,16.08
2022-08-28T04:03:32.994Z,16.06
2022-08-28T04:06:05.907Z,16.03
2022-08-28T04:08:38.775Z,15.96
2022-08-28T04:11:11.230Z,16.03
2022-08-28T04:13:44.356Z,15.99
2022-08-28T04:16:18.852Z,15.92
2022-08-28T04:18:51.423Z,15.86
2022-08-28T04:21:25.354Z,15.93
2022-08-28T04:23:57.737Z,15.97
2022-08-28T04:26:35.720Z,15.99
2022-08-28T04:29:08.850Z,15.96
2022-08-28T04:31:41.776Z,15.98
2022-08-28T04:34:14.208Z,16.02
2022-08-28T04:36:46.631Z,16.04
2022-08-28T04:39:19.502Z,16.04
2022-08-28T04:41:54.569Z,16.05
2022-08-28T04:44:27.601Z,16.09
2022-08-28T04:47:00.751Z,16.03
2022-08-28T04:49:35.480Z,16.12
2022-08-28T04:52:07.934Z,16.18
2022-08-28T04:54:40.298Z,16.20
2022-08-28T04:57:12.726Z,16.25
2022-08-28T04:59:45.894Z,16.26
2022-08-28T05:02:18.352Z,16.32
2022-08-28T05:04:50.800Z,16.39
2022-08-28T05:07:23.185Z,16.42
2022-08-28T05:09:56.251Z,16.53
2022-08-28T05:12:28.684Z,16.56
2022-08-28T05:15:01.846Z,16.63
2022-08-28T05:17:34.311Z,16.72
2022-08-28T05:20:07.581Z,16.84
2022-08-28T05:22:39.987Z,16.95
2022-08-28T05:25:14.238Z,17.03
2022-08-28T05:27:46.951Z,17.07
2022-08-28T05:30:20.330Z,17.16
2022-08-28T05:32:53.239Z,17.23
2022-08-28T05:35:25.685Z,17.40
2022-08-28T05:37:58.126Z,17.56
2022-08-28T05:40:31.057Z,17.68
2022-08-28T05:43:13.830Z,17.84
2022-08-28T05:45:59.015Z,18.02
2022-08-28T05:48:32.884Z,18.15
2022-08-28T05:51:12.615Z,18.34
2022-08-28T05:53:46.051Z,18.48
2022-08-28T05:56:20.395Z,18.64
2022-08-28T05:58:52.823Z,18.85
2022-08-28T06:01:27.941Z,19.04
2022-08-28T06:04:02.550Z,19.26
2022-08-28T06:06:38.595Z,19.44
2022-08-28T06:09:14.344Z,19.66
2022-08-28T06:11:47.296Z,19.80
2022-08-28T06:14:20.115Z,20.04
2022-08-28T06:16:55.280Z,20.22
2022-08-28T06:19:30.193Z,20.45
2022-08-28T06:22:07.338Z,20.65
2022-08-28T06:24:40.881Z,20.84
2022-08-28T06:27:13.270Z,21.08
2022-08-28T06:29:45.710Z,21.25
2022-08-28T06:32:18.805Z,21.49
2022-08-28T06:34:51.400Z,21.69
2022-08-28T06:37:23.760Z,21.91
2022-08-28T06:39:56.316Z,22.12
2022-08-28T06:42:30.546Z,22.32
2022-08-28T06:45:03.476Z,22.56
2022-08-28T06:47:36.758Z,22.83
2022-08-28T06:50:09.790Z,23.03
2022-08-28T06:52:42.143Z,23.25
2022-08-28T06:55:14.584Z,23.41
2022-08-28T06:57:47.899Z,23.64
2022-08-28T07:00:20.476Z,23.78
2022-08-28T07:02:53.607Z,23.69
2022-08-28T07:05:26.066Z,23.95
2022-08-28T07:07:58.474Z,23.98
2022-08-28T07:10:31.031Z,24.10
2022-08-28T07:13:05.063Z,24.32
2022-08-28T07:15:39.039Z,24.48
2022-08-28T07:18:15.381Z,24.48
2022-08-28T07:20:55.773Z,24.31
2022-08-28T07:23:29.128Z,24.42
2022-08-28T07:26:03.962Z,24.54
2022-08-28T07:28:37.318Z,24.95
2022-08-28T07:31:13.671Z,25.24
2022-08-28T07:33:46.955Z,25.43
2022-08-28T07:36:29.910Z,25.56
2022-08-28T07:39:02.428Z,25.64
2022-08-28T07:41:38.355Z,25.78
2022-08-28T07:44:31.888Z,25.95
2022-08-28T07:47:05.868Z,26.19
2022-08-28T07:49:39.794Z,26.44
2022-08-28T07:52:12.306Z,26.59
2022-08-28T07:54:44.632Z,26.86
2022-08-28T07:57:19.547Z,27.04
2022-08-28T07:59:55.236Z,27.09
2022-08-28T08:02:29.271Z,27.34
2022-08-28T08:05:02.422Z,27.56
2022-08-28T08:07:37.376Z,27.15
2022-08-28T08:10:15.066Z,27.51
2022-08-28T08:12:53.043Z,27.82
2022-08-28T08:15:30.712Z,27.99
2022-08-28T08:18:04.054Z,28.14
2022-08-28T08:20:38.307Z,28.26
2022-08-28T08:23:10.678Z,28.58
2022-08-28T08:25:52.835Z,28.73
2022-08-28T08:28:28.980Z,28.81
2022-08-28T08:31:07.013Z,28.99
2022-08-28T08:33:42.011Z,29.14
2022-08-28T08:36:17.455Z,29.53
2022-08-28T08:39:00.064Z,29.82
2022-08-28T08:41:38.789Z,29.80
2022-08-28T08:44:21.662Z,30.01
2022-08-28T08:47:02.895Z,30.21
2022-08-28T08:49:37.842Z,30.11
2022-08-28T08:52:41.427Z,30.03
2022-08-28T08:55:22.806Z,30.11
2022-08-28T08:58:04.273Z,30.25
2022-08-28T09:00:43.028Z,30.02
2022-08-28T09:03:22.668Z,30.13
2022-08-28T09:05:59.772Z,30.46
2022-08-28T09:08:39.092Z,30.73
2022-08-28T09:11:24.402Z,30.92
2022-08-28T09:14:05.023Z,30.77
2022-08-28T09:16:40.420Z,30.89
2022-08-28T09:19:17.882Z,30.98
2022-08-28T09:21:51.483Z,30.87
2022-08-28T09:24:27.647Z,31.14
2022-08-28T09:27:02.687Z,31.41
2022-08-28T09:29:39.062Z,31.76
2022-08-28T09:32:20.975Z,31.80
2022-08-28T09:35:07.354Z,31.86
2022-08-28T09:37:41.772Z,32.01
2022-08-28T09:40:22.076Z,31.54
2022-08-28T09:43:19.670Z,31.82
2022-08-28T09:45:55.701Z,32.05
2022-08-28T09:48:34.858Z,32.28
2022-08-28T09:51:09.147Z,32.23
2022-08-28T09:53:56.334Z,32.50
2022-08-28T09:56:32.719Z,32.83
2022-08-28T09:59:07.127Z,32.08
2022-08-28T10:01:50.158Z,32.22
2022-08-28T10:04:37.115Z,32.67
2022-08-28T10:07:15.080Z,32.80
2022-08-28T10:10:00.111Z,33.07
2022-08-28T10:12:42.798Z,32.92
2022-08-28T10:15:21.962Z,33.13
2022-08-28T10:18:13.707Z,33.44
2022-08-28T10:20:53.974Z,33.45
2022-08-28T10:23:36.743Z,33.26
2022-08-28T10:26:24.635Z,33.00
2022-08-28T10:29:11.647Z,33.15
2022-08-28T10:31:56.867Z,32.76
2022-08-28T10:34:45.941Z,32.52
2022-08-28T10:37:27.386Z,32.90
2022-08-28T10:40:04.565Z,33.16
2022-08-28T10:42:42.110Z,33.26
2022-08-28T10:45:19.422Z,32.60
2022-08-28T10:48:01.398Z,32.61
2022-08-28T10:50:42.208Z,32.75
2022-08-28T10:53:18.988Z,32.74
2022-08-28T10:55:56.205Z,32.56
2022-08-28T10:58:31.927Z,32.44
2022-08-28T11:01:08.577Z,32.38
2022-08-28T11:03:46.307Z,32.68
2022-08-28T11:06:26.473Z,33.01
2022-08-28T11:09:23.098Z,32.46
2022-08-28T11:12:02.076Z,32.01
2022-08-28T11:14:47.608Z,32.26
2022-08-28T11:17:39.279Z,32.60
2022-08-28T11:20:15.354Z,32.23
2022-08-28T11:22:52.894Z,32.05
2022-08-28T11:25:33.076Z,32.33
2022-08-28T11:28:15.569Z,32.39
2022-08-28T11:30:50.068Z,32.60
2022-08-28T11:33:45.228Z,32.76
2022-08-28T11:36:51.146Z,32.55
2022-08-28T11:39:23.676Z,32.02
2022-08-28T11:42:34.752Z,32.46
2022-08-28T11:45:14.181Z,32.67
2022-08-28T11:47:53.366Z,32.42
2022-08-28T11:50:33.079Z,32.87
2022-08-28T11:53:50.974Z,32.93
2022-08-28T11:56:49.636Z,33.21
2022-08-28T11:59:48.559Z,33.46
2022-08-28T12:02:59.845Z,33.27
2022-08-28T12:05:52.532Z,33.33
2022-08-28T12:09:07.761Z,33.86
2022-08-28T12:11:58.684Z,34.15
2022-08-28T12:15:03.439Z,34.23
2022-08-28T12:17:56.224Z,34.58
2022-08-28T12:21:00.806Z,34.61
2022-08-28T12:23:44.226Z,34.46
2022-08-28T12:26:23.909Z,34.46
2022-08-28T12:28:58.317Z,34.53
2022-08-28T12:32:11.168Z,34.28
2022-08-28T12:34:49.606Z,33.71
2022-08-28T12:37:31.083Z,33.75
2022-08-28T12:40:23.129Z,33.54
2022-08-28T12:42:58.355Z,33.20
2022-08-28T12:45:42.114Z,33.17
2022-08-28T12:48:21.366Z,33.03
2022-08-28T12:50:59.365Z,32.90
2022-08-28T12:53:42.507Z,32.52
2022-08-28T12:56:17.993Z,32.27
2022-08-28T12:58:51.474Z,31.81
2022-08-28T13:01:28.286Z,31.71
2022-08-28T13:04:03.869Z,31.55
2022-08-28T13:06:38.549Z,31.65
2022-08-28T13:09:15.780Z,31.67
2022-08-28T13:11:51.098Z,31.66
2022-08-28T13:14:41.178Z,31.59
2022-08-28T13:17:16.766Z,31.38
2022-08-28T13:20:01.640Z,31.31
2022-08-28T13:22:38.396Z,30.95
2022-08-28T13:25:21.047Z,30.88
2022-08-28T13:28:02.218Z,30.85
2022-08-28T13:30:35.347Z,30.92
2022-08-28T13:33:45.148Z,30.99
2022-08-28T13:36:24.059Z,30.90
2022-08-28T13:38:56.244Z,30.88
2022-08-28T13:41:29.263Z,30.73
2022-08-28T13:44:01.824Z,30.67
2022-08-28T13:46:34.720Z,30.52
2022-08-28T13:49:07.229Z,30.50
2022-08-28T13:51:39.758Z,30.47
2022-08-28T13:54:12.594Z,30.42
2022-08-28T13:56:46.817Z,30.25
2022-08-28T13:59:19.675Z,30.33
2022-08-28T14:02:13.614Z,30.38
2022-08-28T14:04:46.284Z,30.22
2022-08-28T14:07:18.753Z,30.39
2022-08-28T14:09:55.990Z,30.40
2022-08-28T14:12:32.957Z,30.36
2022-08-28T14:15:07.051Z,30.30
2022-08-28T14:17:39.637Z,30.25
2022-08-28T14:20:13.831Z,30.24
2022-08-28T14:22:46.287Z,30.38
2022-08-28T14:25:18.741Z,30.51
2022-08-28T14:27:51.795Z,30.59
2022-08-28T14:30:25.563Z,30.41
2022-08-28T14:32:57.988Z,30.28
2022-08-28T14:35:30.418Z,30.28
2022-08-28T14:38:02.768Z,30.22
2022-08-28T14:40:37.542Z,30.19
2022-08-28T14:43:12.515Z,30.05
2022-08-28T14:45:46.505Z,30.13
2022-08-28T14:48:19.001Z,30.30
2022-08-28T14:50:51.606Z,30.20
2022-08-28T14:53:23.987Z,30.09
2022-08-28T14:55:56.487Z,30.04
2022-08-28T14:58:31.717Z,30.01
2022-08-28T15:01:05.132Z,30.09
2022-08-28T15:03:37.633Z,29.88
2022-08-28T15:06:10.146Z,29.97
2022-08-28T15:08:42.518Z,29.84
2022-08-28T15:11:18.725Z,29.83
2022-08-28T15:13:53.092Z,29.71
2022-08-28T15:16:30.103Z,29.70
2022-08-28T15:19:03.569Z,29.71
2022-08-28T15:21:37.869Z,29.67
2022-08-28T15:24:13.606Z,29.69
2022-08-28T15:26:46.386Z,29.65
2022-08-28T15:29:19.763Z,29.68
2022-08-28T15:31:53.491Z,29.69
2022-08-28T15:34:27.905Z,29.42
2022-08-28T15:37:00.507Z,29.43
2022-08-28T15:39:51.121Z,29.33
2022-08-28T15:42:23.815Z,29.11
2022-08-28T15:44:56.953Z,29.12
2022-08-28T15:47:30.095Z,29.12
2022-08-28T15:50:03.127Z,29.11
2022-08-28T15:52:37.102Z,29.08
2022-08-28T15:55:09.962Z,29.02
2022-08-28T15:57:43.466Z,28.93
2022-08-28T16:00:17.020Z,28.87
2022-08-28T16:02:49.554Z,28.71
2022-08-28T16:05:22.162Z,28.62
2022-08-28T16:07:54.634Z,28.65
2022-08-28T16:10:27.507Z,28.65
2022-08-28T16:13:00.448Z,28.70
2022-08-28T16:15:33.747Z,28.67
2022-08-28T16:18:08.275Z,28.58
2022-08-28T16:20:42.412Z,28.39
2022-08-28T16:23:14.923Z,28.35
2022-08-28T16:25:47.469Z,28.32
2022-08-28T16:28:19.938Z,28.31
2022-08-28T16:30:53.005Z,28.29
2022-08-28T16:33:26.363Z,28.22
2022-08-28T16:36:01.020Z,28.09
2022-08-28T16:38:33.543Z,28.00
2022-08-28T16:41:10.862Z,27.86
2022-08-28T16:43:43.394Z,27.73
2022-08-28T16:46:19.043Z,27.64
2022-08-28T16:48:52.556Z,27.55
2022-08-28T16:51:26.265Z,27.44
2022-08-28T16:53:58.667Z,27.42
2022-08-28T16:56:31.073Z,27.33
2022-08-28T16:59:04.471Z,27.28
2022-08-28T17:01:43.723Z,27.14
2022-08-28T17:04:17.163Z,27.00
2022-08-28T17:06:49.614Z,26.81
2022-08-28T17:09:22.005Z,26.66
2022-08-28T17:11:54.414Z,26.54
2022-08-28T17:14:27.599Z,26.45
2022-08-28T17:17:00.722Z,26.31
2022-08-28T17:19:33.282Z,26.25
2022-08-28T17:22:20.812Z,26.17
2022-08-28T17:24:55.208Z,26.09
2022-08-28T17:27:28.430Z,25.95
2022-08-28T17:30:02.535Z,25.87
2022-08-28T17:32:35.906Z,25.73
2022-08-28T17:35:08.789Z,25.62
2022-08-28T17:37:41.792Z,25.51
2022-08-28T17:40:17.037Z,25.39
2022-08-28T17:42:49.819Z,25.23
2022-08-28T17:45:22.215Z,25.13
2022-08-28T17:47:55.348Z,25.02
2022-08-28T17:50:27.835Z,24.93
2022-08-28T17:53:00.239Z,24.86
2022-08-28T17:55:32.860Z,24.70
2022-08-28T17:58:05.645Z,24.71
2022-08-28T18:00:38.983Z,24.66
2022-08-28T18:03:12.162Z,24.61
2022-08-28T18:05:44.496Z,24.46
2022-08-28T18:08:16.887Z,24.35
2022-08-28T18:10:49.368Z,24.32
2022-08-28T18:13:21.877Z,24.29
2022-08-28T18:15:57.040Z,24.14
2022-08-28T18:18:36.170Z,23.99
2022-08-28T18:21:09.300Z,23.93
2022-08-28T18:23:41.807Z,23.89
2022-08-28T18:26:14.733Z,23.77
2022-08-28T18:28:47.248Z,23.63
2022-08-28T18:31:21.539Z,23.48
2022-08-28T18:33:54.773Z,23.56
2022-08-28T18:36:27.175Z,23.51
2022-08-28T18:38:59.828Z,23.42
2022-08-28T18:41:43.243Z,23.29
2022-08-28T18:44:20.155Z,23.28
2022-08-28T18:46:56.210Z,23.18
2022-08-28T18:49:29.358Z,23.10
2022-08-28T18:52:02.727Z,23.04
2022-08-28T18:54:35.114Z,22.91
2022-08-28T18:57:08.200Z,22.84
2022-08-28T18:59:44.003Z,22.72
2022-08-28T19:02:17.777Z,22.63
2022-08-28T19:04:50.992Z,22.51
2022-08-28T19:07:26.738Z,22.45
2022-08-28T19:09:59.163Z,22.45
2022-08-28T19:12:32.712Z,22.36
2022-08-28T19:15:06.879Z,22.25
2022-08-28T19:17:40.826Z,22.29
2022-08-28T19:20:19.423Z,22.25
2022-08-28T19:22:51.822Z,22.21
2022-08-28T19:25:28.479Z,22.14
2022-08-28T19:28:03.706Z,22.04
2022-08-28T19:30:36.108Z,22.00
2022-08-28T19:33:11.771Z,21.88
2022-08-28T19:35:44.825Z,21.92
2022-08-28T19:38:17.811Z,21.90
2022-08-28T19:40:50.466Z,21.87
2022-08-28T19:43:23.275Z,21.78
2022-08-28T19:46:07.660Z,21.68
2022-08-28T19:48:43.995Z,21.58
2022-08-28T19:51:23.253Z,21.53
2022-08-28T19:53:58.603Z,21.51
2022-08-28T19:56:33.179Z,21.43
2022-08-28T19:59:06.896Z,21.38
2022-08-28T20:01:42.900Z,21.30
2022-08-28T20:04:16.997Z,21.29
2022-08-28T20:06:50.423Z,21.23
2022-08-28T20:09:23.100Z,21.21
2022-08-28T20:11:55.622Z,21.21
2022-08-28T20:14:27.955Z,21.02
2022-08-28T20:17:00.346Z,21.02
2022-08-28T20:19:32.746Z,21.02
2022-08-28T20:22:05.965Z,20.98
2022-08-28T20:24:38.904Z,20.90
2022-08-28T20:27:11.287Z,20.83
2022-08-28T20:29:43.687Z,20.78
2022-08-28T20:32:16.357Z,20.82
2022-08-28T20:34:48.791Z,20.81
2022-08-28T20:37:21.933Z,20.79
2022-08-28T20:39:56.906Z,20.79
2022-08-28T20:42:31.843Z,20.72
2022-08-28T20:45:05.746Z,20.72
2022-08-28T20:47:38.131Z,20.68
2022-08-28T20:50:11.623Z,20.64
2022-08-28T20:52:44.899Z,20.57
2022-08-28T20:55:17.574Z,20.56
2022-08-28T20:57:50.455Z,20.56
2022-08-28T21:00:24.427Z,20.59
2022-08-28T21:02:56.890Z,20.52
2022-08-28T21:05:30.463Z,20.51
2022-08-28T21:08:03.859Z,20.44
2022-08-28T21:10:36.928Z,20.42
2022-08-28T21:13:10.003Z,20.36
2022-08-28T21:15:42.359Z,20.36
2022-08-28T21:18:15.221Z,20.34
2022-08-28T21:20:47.719Z,20.34
2022-08-28T21:23:20.782Z,20.26
2022-08-28T21:25:53.189Z,20.21
2022-08-28T21:28:25.902Z,20.24
2022-08-28T21:30:58.367Z,20.21
2022-08-28T21:33:30.814Z,20.22
2022-08-28T21:36:07.656Z,20.19
2022-08-28T21:38:41.541Z,20.02
2022-08-28T21:41:16.145Z,20.04
2022-08-28T21:43:48.519Z,19.93
2022-08-28T21:46:21.192Z,19.92
2022-08-28T21:48:55.514Z,19.93
2022-08-28T21:51:27.879Z,19.88
2022-08-28T21:54:01.216Z,19.82
2022-08-28T21:56:33.534Z,19.80
2022-08-28T21:59:06.043Z,19.80
2022-08-28T22:01:38.523Z,19.77
2022-08-28T22:04:16.738Z,19.70
2022-08-28T22:06:49.573Z,19.70
2022-08-28T22:09:22.612Z,19.60
2022-08-28T22:11:55.010Z,19.64
2022-08-28T22:14:27.848Z,19.69
2022-08-28T22:17:00.313Z,19.67
2022-08-28T22:19:32.710Z,19.70
2022-08-28T22:22:23.569Z,19.66
2022-08-28T22:24:56.619Z,19.55
2022-08-28T22:27:31.110Z,19.52
2022-08-28T22:30:04.106Z,19.51
2022-08-28T22:32:36.471Z,19.48
2022-08-28T22:35:09.984Z,19.45
2022-08-28T22:37:42.424Z,19.39
2022-08-28T22:40:15.538Z,19.38
2022-08-28T22:42:49.771Z,19.36
2022-08-28T22:45:22.931Z,19.35
2022-08-28T22:47:55.429Z,19.29
2022-08-28T22:50:27.748Z,19.23
2022-08-28T22:53:00.156Z,19.18
2022-08-28T22:55:33.170Z,19.16
2022-08-28T22:58:06.715Z,19.16
2022-08-28T23:00:41.041Z,19.15
2022-08-28T23:03:13.428Z,19.14
2022-08-28T23:05:45.986Z,19.14
2022-08-28T23:08:19.080Z,19.10
2022-08-28T23:10:59.727Z,19.05
2022-08-28T23:13:32.923Z,19.04
2022-08-28T23:16:06.890Z,19.04
2022-08-28T23:19:06.082Z,18.97
2022-08-28T23:21:31.734Z,18.94
2022-08-28T23:24:05.579Z,18.91
2022-08-28T23:26:38.582Z,18.88
2022-08-28T23:29:11.622Z,18.90
2022-08-28T23:31:44.041Z,18.89
2022-08-28T23:34:16.518Z,18.86
2022-08-28T23:36:49.014Z,18.84
2022-08-28T23:39:21.405Z,18.76
2022-08-28T23:41:54.460Z,18.70
2022-08-28T23:44:26.979Z,18.71
2022-08-28T23:46:59.410Z,18.67
2022-08-28T23:49:32.029Z,18.69
2022-08-28T23:52:04.678Z,18.72
2022-08-28T23:54:37.298Z,18.67
2022-08-28T23:57:11.024Z,18.60
2022-08-28T23:59:43.956Z,18.63
